Time;durP1;ratioP1;P1;durP2;ratioP2;P2;SDS_P1;SDS_P2;PMS_P1;PMS_P2;Temp;Humidity;BMP_temperature;BMP_pressure;BME280_temperature;BME280_humidity;BME280_pressure;Samples;Min_cycle;Max_cycle;Signal;HPM_P1;HPM_P2
2021/06/16 00:00:58;;;;;;;7.18;4.63;;;15.00;99.90;;;;;;5034334;28;20211;-69
2021/06/16 00:03:25;;;;;;;7.15;4.43;;;15.00;99.90;;;;;;5035025;28;20211;-69
2021/06/16 00:05:52;;;;;;;6.10;3.65;;;14.90;99.90;;;;;;5028087;28;20259;-69
2021/06/16 00:08:19;;;;;;;7.97;4.13;;;14.90;99.90;;;;;;5038232;28;20203;-70
2021/06/16 00:10:47;;;;;;;8.07;4.45;;;14.90;99.90;;;;;;5035365;28;20216;-70
2021/06/16 00:13:15;;;;;;;5.45;3.63;;;14.90;99.90;;;;;;5036822;28;20212;-69
2021/06/16 00:15:44;;;;;;;10.07;4.90;;;14.80;99.90;;;;;;5038769;28;20207;-69
2021/06/16 00:18:13;;;;;;;8.30;4.53;;;14.70;99.90;;;;;;5037409;28;20222;-70
2021/06/16 00:20:40;;;;;;;5.47;3.35;;;14.70;99.90;;;;;;5034089;28;20597;-70
2021/06/16 00:23:08;;;;;;;7.35;4.65;;;14.70;99.90;;;;;;5041758;28;20231;-70
2021/06/16 00:25:36;;;;;;;5.70;3.90;;;14.70;99.90;;;;;;5034429;28;20207;-70
2021/06/16 00:28:04;;;;;;;9.75;3.30;;;14.70;99.90;;;;;;5033480;28;20204;-69
2021/06/16 00:30:32;;;;;;;8.98;5.13;;;14.70;99.90;;;;;;5034540;28;20607;-69
2021/06/16 00:32:59;;;;;;;7.72;4.18;;;14.60;99.90;;;;;;5033802;28;20620;-71
2021/06/16 00:35:27;;;;;;;7.38;3.33;;;14.60;99.90;;;;;;5038368;28;20207;-69
2021/06/16 00:37:56;;;;;;;8.15;4.32;;;14.60;99.90;;;;;;5034506;28;20238;-70
2021/06/16 00:40:27;;;;;;;8.43;3.80;;;14.60;99.90;;;;;;5025418;28;20291;-70
2021/06/16 00:42:57;;;;;;;5.25;3.80;;;14.60;99.90;;;;;;5035667;28;20238;-70
2021/06/16 00:45:24;;;;;;;11.40;5.32;;;14.50;99.90;;;;;;5040182;28;20211;-70
2021/06/16 00:47:55;;;;;;;7.28;4.88;;;14.50;99.90;;;;;;5033983;28;20215;-70
2021/06/16 00:50:24;;;;;;;6.07;5.03;;;14.50;99.90;;;;;;5035260;28;20203;-71
2021/06/16 00:52:52;;;;;;;11.73;4.63;;;14.40;99.90;;;;;;5033440;28;20228;-71
2021/06/16 00:55:20;;;;;;;5.65;4.60;;;14.40;99.90;;;;;;5033728;28;20227;-70
2021/06/16 00:57:47;;;;;;;11.23;5.32;;;14.40;99.90;;;;;;5031551;28;20219;-71
2021/06/16 01:00:18;;;;;;;4.82;4.03;;;14.40;99.90;;;;;;5034252;28;20216;-70
2021/06/16 01:02:50;;;;;;;4.38;3.35;;;14.40;99.90;;;;;;5036446;28;20311;-70
2021/06/16 01:05:19;;;;;;;4.88;3.65;;;14.40;99.90;;;;;;5032796;28;20584;-70
2021/06/16 01:07:59;;;;;;;5.60;3.75;;;14.40;99.90;;;;;;5029999;28;20204;-70
2021/06/16 01:10:34;;;;;;;6.10;3.75;;;14.40;99.90;;;;;;5027191;28;20205;-70
2021/06/16 01:13:05;;;;;;;7.85;4.32;;;14.30;99.90;;;;;;5016468;28;20697;-70
2021/06/16 01:15:44;;;;;;;6.57;3.63;;;14.30;99.90;;;;;;5037121;28;20207;-71
2021/06/16 01:18:17;;;;;;;5.80;3.75;;;14.30;99.90;;;;;;5034358;28;20231;-69
2021/06/16 01:20:49;;;;;;;8.05;4.28;;;14.30;99.90;;;;;;5028107;28;20204;-70
2021/06/16 01:23:33;;;;;;;6.30;4.50;;;14.30;99.90;;;;;;5030768;28;20664;-71
2021/06/16 01:26:18;;;;;;;5.15;4.00;;;14.30;99.90;;;;;;5013114;28;20559;-70
2021/06/16 01:28:46;;;;;;;9.95;4.80;;;14.20;99.90;;;;;;5028453;28;20204;-70
2021/06/16 01:31:19;;;;;;;9.55;4.78;;;14.20;99.90;;;;;;5034552;28;20227;-70
2021/06/16 01:33:47;;;;;;;5.85;4.72;;;14.30;99.90;;;;;;5034292;28;20265;-69
2021/06/16 01:36:15;;;;;;;8.98;5.35;;;14.20;99.90;;;;;;5035912;28;20206;-69
2021/06/16 01:38:44;;;;;;;5.22;4.40;;;14.10;99.90;;;;;;5031654;28;20228;-69
2021/06/16 01:41:14;;;;;;;5.72;4.78;;;14.10;99.90;;;;;;5032862;28;20232;-69
2021/06/16 01:43:42;;;;;;;12.45;6.07;;;14.10;99.90;;;;;;5033302;28;20214;-69
2021/06/16 01:46:10;;;;;;;9.00;4.78;;;14.10;99.90;;;;;;5034204;28;20278;-69
2021/06/16 01:48:40;;;;;;;5.57;4.75;;;14.10;99.90;;;;;;5026575;28;20203;-70
2021/06/16 01:51:10;;;;;;;5.88;5.28;;;14.00;99.90;;;;;;5033053;28;20235;-70
2021/06/16 01:53:38;;;;;;;8.82;4.93;;;14.10;99.90;;;;;;5032891;28;20558;-69
2021/06/16 01:56:07;;;;;;;6.40;4.60;;;14.10;99.90;;;;;;5038568;28;20204;-70
2021/06/16 01:58:37;;;;;;;6.53;4.25;;;14.10;99.90;;;;;;5032030;28;20224;-69
2021/06/16 02:01:06;;;;;;;5.00;4.25;;;14.00;99.90;;;;;;5037366;28;20193;-69
2021/06/16 02:03:33;;;;;;;7.50;4.60;;;14.00;99.90;;;;;;5027032;28;20257;-69
2021/06/16 02:06:01;;;;;;;5.20;4.70;;;14.10;99.90;;;;;;5029824;28;20653;-69
2021/06/16 02:08:31;;;;;;;6.05;4.82;;;14.10;99.90;;;;;;5031614;28;20200;-71
2021/06/16 02:11:02;;;;;;;7.45;4.20;;;14.10;99.90;;;;;;5032817;28;20201;-70
2021/06/16 02:13:33;;;;;;;10.18;4.63;;;14.00;99.90;;;;;;5037136;28;20200;-69
2021/06/16 02:16:03;;;;;;;5.57;4.13;;;14.00;99.90;;;;;;5037288;28;20215;-69
2021/06/16 02:18:34;;;;;;;7.35;4.35;;;13.90;99.90;;;;;;5035133;28;20227;-69
2021/06/16 02:21:02;;;;;;;12.10;4.72;;;13.90;99.90;;;;;;5036674;28;20215;-69
2021/06/16 02:23:30;;;;;;;9.38;4.75;;;13.90;99.90;;;;;;5040298;28;20207;-69
2021/06/16 02:25:58;;;;;;;8.82;5.18;;;13.90;99.90;;;;;;5032314;28;20211;-69
2021/06/16 02:28:25;;;;;;;9.35;4.57;;;13.80;99.90;;;;;;5029691;28;20206;-70
2021/06/16 02:30:52;;;;;;;6.75;4.68;;;13.80;99.90;;;;;;5032968;28;20208;-70
2021/06/16 02:33:21;;;;;;;9.65;5.22;;;13.90;99.90;;;;;;5032231;28;20210;-71
2021/06/16 02:35:49;;;;;;;9.98;4.93;;;13.90;99.90;;;;;;5028507;28;20548;-70
2021/06/16 02:38:20;;;;;;;7.55;4.50;;;13.90;99.90;;;;;;5031636;28;20265;-70
2021/06/16 02:40:48;;;;;;;8.00;4.53;;;13.90;99.90;;;;;;5028440;28;20305;-72
2021/06/16 02:43:16;;;;;;;6.78;5.20;;;13.90;99.90;;;;;;5031331;28;20211;-69
2021/06/16 02:45:44;;;;;;;7.22;5.18;;;13.90;99.90;;;;;;5030647;28;20207;-69
2021/06/16 02:48:13;;;;;;;4.68;4.25;;;13.90;99.90;;;;;;5039425;28;20219;-70
2021/06/16 02:50:44;;;;;;;6.43;4.65;;;13.90;99.90;;;;;;5031740;28;20201;-68
2021/06/16 02:53:17;;;;;;;9.98;4.63;;;13.90;99.90;;;;;;5041889;28;20217;-69
2021/06/16 02:55:47;;;;;;;7.80;4.43;;;13.90;99.90;;;;;;5034356;28;20196;-69
2021/06/16 02:58:17;;;;;;;8.40;5.20;;;13.90;99.90;;;;;;5031853;28;20235;-69
2021/06/16 03:00:47;;;;;;;5.60;4.90;;;14.00;99.90;;;;;;5033825;28;20207;-70
2021/06/16 03:03:18;;;;;;;8.70;4.55;;;14.00;99.90;;;;;;5037524;28;20200;-70
2021/06/16 03:05:49;;;;;;;12.90;5.75;;;14.00;99.90;;;;;;5031501;28;20245;-70
2021/06/16 03:08:17;;;;;;;12.55;5.47;;;14.00;99.90;;;;;;5030745;28;20226;-71
2021/06/16 03:10:45;;;;;;;6.32;5.10;;;14.00;99.90;;;;;;5031537;28;20208;-71
2021/06/16 03:13:13;;;;;;;9.60;5.10;;;14.00;99.90;;;;;;5030536;28;20228;-71
2021/06/16 03:15:42;;;;;;;12.43;5.43;;;14.10;99.90;;;;;;5035867;28;20196;-69
2021/06/16 03:18:11;;;;;;;7.45;5.28;;;14.10;99.90;;;;;;5031805;28;20234;-70
2021/06/16 03:20:40;;;;;;;6.40;4.80;;;14.10;99.90;;;;;;5030013;28;20208;-69
2021/06/16 03:23:10;;;;;;;8.68;5.53;;;14.10;99.90;;;;;;5033459;28;20222;-70
2021/06/16 03:25:39;;;;;;;5.43;4.57;;;14.20;99.90;;;;;;5031581;28;20651;-71
2021/06/16 03:28:07;;;;;;;7.63;4.88;;;14.20;99.90;;;;;;5029339;28;20207;-70
2021/06/16 03:30:35;;;;;;;8.65;5.10;;;14.30;99.90;;;;;;5031446;28;20216;-69
2021/06/16 03:33:03;;;;;;;8.98;5.50;;;14.40;99.90;;;;;;5028631;28;20231;-69
2021/06/16 03:35:30;;;;;;;10.05;5.70;;;14.40;99.90;;;;;;5030018;28;20204;-69
2021/06/16 03:38:01;;;;;;;12.30;5.60;;;14.40;99.90;;;;;;5030225;28;20223;-70
2021/06/16 03:40:30;;;;;;;8.77;5.35;;;14.50;99.90;;;;;;5027970;28;20542;-69
2021/06/16 03:42:58;;;;;;;6.13;4.88;;;14.50;99.90;;;;;;5031344;28;20228;-69
2021/06/16 03:45:27;;;;;;;10.85;6.38;;;14.60;99.90;;;;;;5031769;28;20203;-69
2021/06/16 03:47:58;;;;;;;4.90;4.50;;;14.60;99.90;;;;;;5031502;28;20200;-69
2021/06/16 03:50:27;;;;;;;8.93;5.30;;;14.60;99.90;;;;;;5029120;28;20597;-69
2021/06/16 03:52:56;;;;;;;7.88;5.53;;;14.70;99.90;;;;;;5031210;28;20301;-70
2021/06/16 03:55:23;;;;;;;6.43;5.10;;;14.70;99.90;;;;;;5027156;28;20292;-71
2021/06/16 03:57:53;;;;;;;7.22;4.45;;;14.80;99.90;;;;;;5026985;28;20220;-70
2021/06/16 04:00:21;;;;;;;7.32;5.07;;;14.80;99.90;;;;;;5030360;28;20675;-70
2021/06/16 04:02:49;;;;;;;9.98;4.75;;;14.90;99.90;;;;;;5031424;28;20640;-70
2021/06/16 04:05:17;;;;;;;8.77;4.50;;;15.30;99.90;;;;;;5031285;28;20208;-70
2021/06/16 04:07:49;;;;;;;7.70;4.32;;;16.20;99.90;;;;;;5024912;28;20317;-72
2021/06/16 04:10:18;;;;;;;6.85;4.70;;;17.30;99.90;;;;;;5030090;28;20578;-70
2021/06/16 04:12:47;;;;;;;11.53;4.13;;;18.40;99.90;;;;;;5031363;28;20698;-70
2021/06/16 04:15:17;;;;;;;8.97;3.60;;;19.40;99.90;;;;;;5032514;28;20455;-70
2021/06/16 04:17:44;;;;;;;7.30;3.40;;;20.30;98.90;;;;;;5040413;28;20864;-70
2021/06/16 04:20:12;;;;;;;4.60;3.30;;;21.20;96.40;;;;;;5033665;28;20471;-69
2021/06/16 04:22:40;;;;;;;4.77;3.17;;;22.00;94.70;;;;;;5036273;28;20955;-70
2021/06/16 04:25:09;;;;;;;7.17;3.73;;;22.70;92.70;;;;;;5034848;28;20519;-69
2021/06/16 04:27:38;;;;;;;8.67;4.33;;;23.20;91.20;;;;;;5039609;28;20450;-70
2021/06/16 04:30:07;;;;;;;12.20;3.40;;;23.50;89.80;;;;;;5036247;28;20446;-72
2021/06/16 04:32:36;;;;;;;3.97;3.23;;;24.10;88.40;;;;;;5037919;28;20469;-70
2021/06/16 04:35:04;;;;;;;5.80;3.43;;;24.20;87.00;;;;;;5037098;28;20827;-71
2021/06/16 04:37:31;;;;;;;7.83;3.23;;;24.60;84.80;;;;;;5034034;28;20447;-71
2021/06/16 04:39:59;;;;;;;6.07;3.70;;;25.00;84.20;;;;;;5034217;28;20477;-70
2021/06/16 04:42:26;;;;;;;5.43;3.80;;;25.00;83.20;;;;;;5033710;28;20835;-70
2021/06/16 04:44:53;;;;;;;7.53;3.67;;;25.20;83.00;;;;;;5033725;28;20473;-68
2021/06/16 04:47:21;;;;;;;8.00;4.00;;;25.40;81.50;;;;;;5072921;22;20488;-70
2021/06/16 04:49:50;;;;;;;8.70;4.20;;;25.30;81.00;;;;;;5089734;28;20786;-69
2021/06/16 04:52:17;;;;;;;5.83;3.33;;;25.70;80.80;;;;;;5079289;28;20465;-70
2021/06/16 04:54:44;;;;;;;4.63;3.20;;;26.00;80.10;;;;;;5064894;28;20446;-71
2021/06/16 04:57:11;;;;;;;9.40;3.60;;;26.20;79.60;;;;;;5062724;28;20476;-71
2021/06/16 04:59:39;;;;;;;7.13;3.60;;;26.60;77.90;;;;;;5069058;28;20568;-69
2021/06/16 05:02:06;;;;;;;6.70;3.67;;;26.50;77.10;;;;;;5068745;28;20469;-69
2021/06/16 05:04:33;;;;;;;5.80;4.20;;;26.70;77.50;;;;;;5066813;28;20444;-70
2021/06/16 05:07:02;;;;;;;4.03;3.00;;;27.30;75.10;;;;;;5057571;28;20454;-70
2021/06/16 05:09:29;;;;;;;4.80;3.93;;;27.40;74.50;;;;;;5053465;28;20449;-70
2021/06/16 05:11:56;;;;;;;6.90;4.30;;;27.30;73.50;;;;;;5061884;28;20473;-70
2021/06/16 05:14:24;;;;;;;5.10;3.20;;;27.70;73.50;;;;;;5070231;28;20452;-70
2021/06/16 05:16:51;;;;;;;6.20;3.07;;;27.50;73.10;;;;;;5060452;28;20537;-71
2021/06/16 05:19:21;;;;;;;7.30;3.13;;;27.80;72.60;;;;;;5057180;28;20585;-71
2021/06/16 05:21:49;;;;;;;5.80;3.03;;;28.30;71.50;;;;;;5063254;28;20943;-71
2021/06/16 05:24:18;;;;;;;5.87;2.97;;;28.40;70.00;;;;;;5072667;28;20953;-71
2021/06/16 05:26:46;;;;;;;7.13;2.70;;;28.70;70.40;;;;;;5060296;28;20949;-71
2021/06/16 05:29:13;;;;;;;6.50;3.30;;;28.90;68.50;;;;;;5064596;28;20441;-70
2021/06/16 05:31:40;;;;;;;6.00;2.37;;;28.60;67.90;;;;;;5071203;28;20461;-71
2021/06/16 05:34:08;;;;;;;8.70;3.17;;;28.60;68.30;;;;;;5069655;28;20441;-70
2021/06/16 05:36:36;;;;;;;5.37;2.43;;;28.80;67.30;;;;;;5069817;28;20525;-71
2021/06/16 05:39:06;;;;;;;4.63;2.83;;;28.80;66.80;;;;;;5066022;28;20481;-70
2021/06/16 05:41:35;;;;;;;7.20;2.40;;;29.10;66.20;;;;;;5066408;28;20480;-70
2021/06/16 05:44:02;;;;;;;9.30;2.83;;;29.40;65.50;;;;;;5063537;28;20842;-71
2021/06/16 05:46:29;;;;;;;4.10;2.40;;;28.90;64.90;;;;;;5068892;28;20446;-70
2021/06/16 05:48:57;;;;;;;7.37;2.20;;;28.00;66.50;;;;;;5067343;28;20459;-72
2021/06/16 05:51:24;;;;;;;5.67;2.60;;;28.40;66.40;;;;;;5071619;28;20465;-71
2021/06/16 05:53:51;;;;;;;4.63;2.40;;;28.40;66.00;;;;;;5061076;28;20449;-73
2021/06/16 05:56:18;;;;;;;6.30;2.23;;;28.40;65.30;;;;;;5064714;28;20450;-74
2021/06/16 05:58:47;;;;;;;3.80;2.53;;;28.20;65.70;;;;;;5060403;28;20481;-73
2021/06/16 06:01:14;;;;;;;4.63;2.93;;;28.00;67.20;;;;;;5060882;28;20476;-72
2021/06/16 06:03:42;;;;;;;5.60;2.57;;;28.40;65.90;;;;;;5066980;28;20448;-73
2021/06/16 06:06:09;;;;;;;5.30;2.60;;;28.70;66.00;;;;;;5070776;28;20939;-70
2021/06/16 06:08:37;;;;;;;7.27;3.00;;;28.90;64.90;;;;;;5065913;28;20508;-75
2021/06/16 06:11:04;;;;;;;10.70;3.00;;;28.70;64.60;;;;;;5067044;28;20445;-71
2021/06/16 06:13:31;;;;;;;5.97;2.20;;;28.80;64.60;;;;;;5071811;28;20445;-70
2021/06/16 06:16:00;;;;;;;4.30;2.60;;;28.80;64.20;;;;;;5066040;28;20445;-71
2021/06/16 06:18:27;;;;;;;6.70;2.10;;;28.80;64.30;;;;;;5061173;28;20988;-72
2021/06/16 06:20:54;;;;;;;7.00;2.60;;;29.50;64.30;;;;;;5065197;28;20463;-74
2021/06/16 06:23:21;;;;;;;6.80;2.87;;;29.00;63.50;;;;;;5056438;28;20461;-74
2021/06/16 06:25:48;;;;;;;9.53;2.20;;;28.90;64.90;;;;;;5072547;28;20506;-71
2021/06/16 06:28:16;;;;;;;5.17;2.70;;;29.00;63.60;;;;;;5065571;28;20446;-73
2021/06/16 06:30:43;;;;;;;5.43;2.40;;;28.80;64.10;;;;;;5062327;28;21002;-75
2021/06/16 06:33:12;;;;;;;7.17;2.27;;;29.40;63.50;;;;;;5070492;28;20468;-70
2021/06/16 06:35:39;;;;;;;9.00;3.00;;;29.20;63.10;;;;;;5059586;28;20448;-74
2021/06/16 06:38:06;;;;;;;5.80;2.10;;;29.40;63.00;;;;;;5064297;28;20468;-71
2021/06/16 06:40:34;;;;;;;4.60;1.97;;;29.90;62.40;;;;;;5066524;28;20489;-72
2021/06/16 06:43:02;;;;;;;5.23;2.80;;;30.40;62.20;;;;;;5063478;28;20465;-71
2021/06/16 06:45:29;;;;;;;6.87;2.80;;;30.00;62.10;;;;;;5064957;28;20450;-71
2021/06/16 06:47:57;;;;;;;8.10;2.40;;;30.60;62.00;;;;;;5066568;28;20456;-73
2021/06/16 06:50:25;;;;;;;8.80;3.13;;;30.80;61.30;;;;;;5070725;28;20447;-75
2021/06/16 06:52:53;;;;;;;6.27;2.43;;;30.90;60.70;;;;;;5069051;28;20469;-75
2021/06/16 06:55:20;;;;;;;10.73;3.00;;;31.20;59.90;;;;;;5065593;28;20437;-72
2021/06/16 06:57:47;;;;;;;3.70;1.90;;;31.30;60.10;;;;;;5070677;28;20441;-75
2021/06/16 07:00:15;;;;;;;5.77;2.57;;;32.00;59.00;;;;;;5069244;28;20578;-69
2021/06/16 07:02:44;;;;;;;5.00;2.43;;;31.90;59.00;;;;;;5062362;28;20465;-71
2021/06/16 07:05:12;;;;;;;5.87;2.93;;;32.00;58.60;;;;;;5061036;28;20932;-72
2021/06/16 07:07:42;;;;;;;6.50;2.97;;;31.90;58.70;;;;;;5060227;28;20472;-73
2021/06/16 07:10:10;;;;;;;4.43;2.47;;;31.80;58.90;;;;;;5063381;28;20969;-75
2021/06/16 07:12:37;;;;;;;6.17;2.77;;;32.60;57.50;;;;;;5067704;28;20472;-75
2021/06/16 07:15:05;;;;;;;7.43;3.00;;;33.00;57.00;;;;;;5062504;28;20433;-69
2021/06/16 07:17:34;;;;;;;10.20;3.20;;;33.20;56.30;;;;;;5067676;28;20453;-74
2021/06/16 07:20:01;;;;;;;9.27;3.27;;;32.80;56.70;;;;;;5070670;28;20854;-71
2021/06/16 07:22:28;;;;;;;7.00;2.77;;;32.80;57.10;;;;;;5067002;28;20466;-74
2021/06/16 07:24:56;;;;;;;4.00;2.37;;;33.00;57.60;;;;;;5070473;28;20961;-74
2021/06/16 07:27:24;;;;;;;4.83;2.80;;;32.90;56.80;;;;;;5065917;28;20465;-73
2021/06/16 07:29:51;;;;;;;3.80;2.03;;;32.70;57.50;;;;;;5065594;28;20513;-72
2021/06/16 07:32:19;;;;;;;2.90;1.70;;;33.20;56.10;;;;;;5068511;28;20481;-75
2021/06/16 07:34:46;;;;;;;4.90;2.57;;;33.10;56.00;;;;;;5064741;28;20461;-72
2021/06/16 07:37:13;;;;;;;6.80;2.20;;;33.30;55.60;;;;;;5065270;28;20448;-71
2021/06/16 07:39:41;;;;;;;5.07;2.50;;;33.00;55.10;;;;;;5066419;28;20489;-74
2021/06/16 07:42:11;;;;;;;8.00;2.20;;;33.00;55.50;;;;;;5066324;28;20475;-72
2021/06/16 07:44:38;;;;;;;4.33;2.40;;;33.00;55.90;;;;;;5070548;28;20453;-73
2021/06/16 07:47:06;;;;;;;4.43;2.50;;;32.80;55.80;;;;;;5064358;28;20467;-73
2021/06/16 07:49:33;;;;;;;4.60;2.07;;;32.90;55.70;;;;;;5068681;28;21077;-73
2021/06/16 07:52:00;;;;;;;6.03;2.50;;;32.60;56.60;;;;;;5073472;28;20480;-74
2021/06/16 07:54:27;;;;;;;7.90;2.60;;;32.80;55.90;;;;;;5067315;28;20455;-74
2021/06/16 07:56:54;;;;;;;5.20;2.20;;;32.70;56.60;;;;;;5073384;28;20515;-73
2021/06/16 07:59:23;;;;;;;3.10;2.03;;;32.90;56.10;;;;;;5058969;28;20488;-73
2021/06/16 08:01:51;;;;;;;5.40;2.00;;;33.20;56.00;;;;;;5055449;28;20504;-75
2021/06/16 08:04:22;;;;;;;8.27;2.90;;;33.60;55.20;;;;;;5064164;28;20525;-73
2021/06/16 08:06:50;;;;;;;6.10;2.80;;;33.10;54.60;;;;;;5072242;28;20494;-75
2021/06/16 08:09:17;;;;;;;4.40;2.00;;;33.60;54.40;;;;;;5057961;28;20433;-74
2021/06/16 08:11:47;;;;;;;5.17;1.90;;;33.60;54.80;;;;;;5068270;28;20646;-72
2021/06/16 08:14:14;;;;;;;4.53;2.70;;;33.60;54.80;;;;;;5063654;28;20437;-72
2021/06/16 08:16:45;;;;;;;7.00;2.37;;;33.80;54.20;;;;;;5058183;28;20884;-72
2021/06/16 08:19:12;;;;;;;6.20;2.30;;;33.90;54.60;;;;;;5062620;28;20481;-69
2021/06/16 08:21:40;;;;;;;3.20;1.50;;;34.00;54.20;;;;;;5066026;28;20477;-73
2021/06/16 08:24:08;;;;;;;5.40;2.07;;;34.50;51.50;;;;;;5062571;28;20456;-75
2021/06/16 08:26:36;;;;;;;4.67;2.23;;;33.90;51.80;;;;;;5061885;28;20454;-75
2021/06/16 08:29:03;;;;;;;12.00;3.53;;;33.90;51.90;;;;;;5068497;28;20437;-73
2021/06/16 08:31:30;;;;;;;4.87;2.37;;;33.80;51.50;;;;;;5071253;28;20992;-71
2021/06/16 08:33:58;;;;;;;4.17;1.80;;;33.50;51.50;;;;;;5062905;28;20919;-72
2021/06/16 08:36:27;;;;;;;3.33;1.60;;;32.90;52.10;;;;;;5072337;28;20465;-74
2021/06/16 08:38:54;;;;;;;2.83;1.87;;;32.60;52.10;;;;;;5065372;28;20471;-72
2021/06/16 08:41:22;;;;;;;4.47;2.07;;;33.40;52.10;;;;;;5063031;28;20569;-71
2021/06/16 08:43:51;;;;;;;8.53;3.53;;;33.30;52.20;;;;;;5070649;28;20449;-74
2021/06/16 08:46:21;;;;;;;8.23;1.73;;;33.10;52.20;;;;;;5060067;28;20813;-72
2021/06/16 08:48:48;;;;;;;6.00;2.23;;;33.20;52.60;;;;;;5064581;28;20460;-73
2021/06/16 08:51:17;;;;;;;5.57;2.33;;;33.30;52.00;;;;;;5073630;28;20465;-74
2021/06/16 08:53:45;;;;;;;3.93;2.17;;;33.70;51.60;;;;;;5067961;28;20454;-74
2021/06/16 08:56:13;;;;;;;5.20;2.00;;;34.70;49.70;;;;;;5070162;28;20456;-74
2021/06/16 08:58:42;;;;;;;4.83;2.50;;;35.40;49.40;;;;;;5067926;28;20453;-74
2021/06/16 09:01:12;;;;;;;6.03;2.10;;;35.10;48.60;;;;;;5060745;28;20489;-70
2021/06/16 09:03:40;;;;;;;2.50;2.03;;;34.50;48.10;;;;;;5062177;28;20507;-73
2021/06/16 09:06:09;;;;;;;4.90;1.93;;;34.30;49.20;;;;;;5061459;28;20453;-73
2021/06/16 09:08:54;;;;;;;6.00;1.90;;;34.30;49.30;;;;;;5071430;28;20567;-73
2021/06/16 09:11:21;;;;;;;6.40;1.80;;;34.10;48.60;;;;;;5061962;28;20544;-74
2021/06/16 09:13:51;;;;;;;4.00;2.67;;;34.00;49.40;;;;;;5064691;28;20460;-75
2021/06/16 09:16:26;;;;;;;2.90;2.20;;;34.40;48.80;;;;;;5070556;28;20449;-74
2021/06/16 09:18:54;;;;;;;4.37;2.30;;;34.10;49.20;;;;;;5061202;28;20833;-73
2021/06/16 09:21:34;;;;;;;4.53;1.77;;;33.90;49.20;;;;;;5072632;28;20465;-71
2021/06/16 09:24:02;;;;;;;6.07;2.30;;;34.30;49.40;;;;;;5063701;28;20938;-75
2021/06/16 09:26:34;;;;;;;5.63;2.50;;;34.30;49.30;;;;;;5067473;28;20449;-71
2021/06/16 09:29:01;;;;;;;7.93;2.70;;;34.10;49.70;;;;;;5059550;28;20444;-73
2021/06/16 09:31:37;;;;;;;7.40;2.10;;;33.00;50.80;;;;;;5065477;28;20470;-73
2021/06/16 09:34:11;;;;;;;5.23;1.60;;;33.40;50.10;;;;;;5073219;28;20437;-72
2021/06/16 09:36:53;;;;;;;8.30;2.13;;;33.10;50.30;;;;;;5068414;28;20802;-71
2021/06/16 09:39:27;;;;;;;6.93;1.70;;;32.60;50.00;;;;;;5063960;28;20434;-73
2021/06/16 09:42:01;;;;;;;3.53;1.80;;;33.00;50.50;;;;;;5066284;28;20555;-71
2021/06/16 09:44:44;;;;;;;6.50;1.63;;;33.10;50.50;;;;;;5065883;28;20449;-71
2021/06/16 09:47:13;;;;;;;13.20;1.60;;;33.30;49.90;;;;;;5057016;28;20465;-73
2021/06/16 09:49:47;;;;;;;4.10;2.37;;;33.20;49.70;;;;;;5071854;28;20444;-77
2021/06/16 09:52:34;;;;;;;5.73;2.03;;;32.80;49.40;;;;;;5072099;28;20472;-71
2021/06/16 09:55:06;;;;;;;2.80;1.70;;;32.50;50.30;;;;;;5063224;28;20471;-73
2021/06/16 09:57:35;;;;;;;5.83;2.07;;;32.90;49.30;;;;;;5060165;28;20943;-72
2021/06/16 10:00:08;;;;;;;7.17;2.63;;;33.30;48.60;;;;;;5067085;28;20491;-74
2021/06/16 10:02:40;;;;;;;4.27;2.57;;;33.30;49.30;;;;;;5069304;28;20473;-72
2021/06/16 10:05:11;;;;;;;3.93;1.70;;;33.20;49.00;;;;;;5059374;28;20962;-72
2021/06/16 10:07:38;;;;;;;3.00;1.90;;;33.10;49.10;;;;;;5061311;28;20477;-73
2021/06/16 10:10:09;;;;;;;4.70;2.17;;;32.80;49.90;;;;;;5060093;28;20465;-73
2021/06/16 10:12:37;;;;;;;4.40;2.50;;;32.50;50.50;;;;;;5057759;28;20545;-71
2021/06/16 10:15:08;;;;;;;7.00;1.67;;;33.00;50.80;;;;;;5062829;28;20829;-72
2021/06/16 10:17:36;;;;;;;2.73;2.20;;;33.60;50.40;;;;;;5057936;28;20485;-73
2021/06/16 10:20:04;;;;;;;3.63;2.30;;;33.40;50.20;;;;;;5066865;28;20477;-72
2021/06/16 10:22:36;;;;;;;2.33;1.90;;;33.20;50.20;;;;;;5058767;28;20478;-70
2021/06/16 10:25:05;;;;;;;2.40;1.40;;;33.20;50.60;;;;;;5071328;28;20532;-72
2021/06/16 10:27:37;;;;;;;2.70;1.73;;;33.40;50.10;;;;;;5060543;28;20819;-76
2021/06/16 10:30:08;;;;;;;6.43;1.73;;;32.90;50.60;;;;;;5059325;28;20482;-72
2021/06/16 10:32:38;;;;;;;5.90;2.80;;;33.00;49.60;;;;;;5059490;28;20518;-74
2021/06/16 10:35:07;;;;;;;6.90;2.23;;;32.70;49.90;;;;;;5058344;28;20446;-72
2021/06/16 10:37:36;;;;;;;3.87;2.17;;;32.10;51.70;;;;;;5062812;28;20477;-71
2021/06/16 10:40:27;;;;;;;5.03;2.30;;;31.90;52.30;;;;;;5059319;28;20482;-73
2021/06/16 10:43:29;;;;;;;7.13;1.97;;;30.80;54.10;;;;;;5048574;28;20484;-72
2021/06/16 10:46:03;;;;;;;7.47;2.50;;;30.00;54.90;;;;;;4986029;28;20444;-75
2021/06/16 10:48:56;;;;;;;4.80;2.33;;;29.60;56.00;;;;;;5058746;28;20865;-74
2021/06/16 10:51:29;;;;;;;4.50;2.07;;;29.30;56.40;;;;;;5065319;28;20465;-74
2021/06/16 10:54:28;;;;;;;6.17;2.00;;;29.10;57.60;;;;;;5069831;28;20453;-71
2021/06/16 10:57:11;;;;;;;6.27;2.43;;;28.90;58.80;;;;;;5009133;28;20511;-75
2021/06/16 11:00:19;;;;;;;5.17;2.30;;;29.00;58.40;;;;;;5057019;28;20477;-73
2021/06/16 11:02:56;;;;;;;7.43;2.67;;;28.90;58.50;;;;;;5060036;28;20814;-72
2021/06/16 11:05:26;;;;;;;6.37;2.33;;;29.00;59.20;;;;;;5058829;28;20484;-70
2021/06/16 11:07:54;;;;;;;2.57;1.80;;;29.00;59.70;;;;;;5071659;28;20650;-73
2021/06/16 11:10:21;;;;;;;3.33;1.90;;;28.80;58.10;;;;;;5063490;28;20441;-73
2021/06/16 11:12:53;;;;;;;4.93;2.27;;;28.40;59.70;;;;;;5071958;28;20491;-76
2021/06/16 11:15:34;;;;;;;3.80;1.70;;;28.30;59.70;;;;;;5055902;28;20770;-71
2021/06/16 11:18:03;;;;;;;5.43;2.47;;;28.50;60.00;;;;;;5055867;28;20453;-74
2021/06/16 11:20:36;;;;;;;4.40;2.10;;;28.50;60.20;;;;;;5069181;28;21017;-70
2021/06/16 11:23:05;;;;;;;4.63;2.13;;;28.30;59.80;;;;;;5062357;28;21052;-75
2021/06/16 11:25:38;;;;;;;2.90;1.87;;;28.40;60.10;;;;;;5069792;28;20974;-72
2021/06/16 11:28:16;;;;;;;3.87;1.50;;;28.40;60.50;;;;;;5056545;28;20511;-74
2021/06/16 11:31:09;;;;;;;2.90;1.90;;;28.40;60.40;;;;;;5070929;28;20468;-74
2021/06/16 11:33:45;;;;;;;3.27;2.00;;;28.40;61.00;;;;;;5071936;28;20445;-72
2021/06/16 11:36:29;;;;;;;5.93;2.27;;;28.40;61.00;;;;;;5070291;28;20445;-73
2021/06/16 11:39:01;;;;;;;4.63;2.30;;;28.40;61.10;;;;;;5064381;28;20453;-71
2021/06/16 11:41:28;;;;;;;3.57;2.20;;;28.10;61.40;;;;;;5056545;28;20547;-74
2021/06/16 11:43:57;;;;;;;4.00;2.03;;;28.10;62.40;;;;;;5061411;28;20454;-72
2021/06/16 11:46:27;;;;;;;2.63;2.17;;;28.10;62.60;;;;;;5064471;28;20925;-71
2021/06/16 11:49:06;;;;;;;2.87;2.10;;;28.00;63.20;;;;;;5060435;28;20936;-72
2021/06/16 11:51:37;;;;;;;6.00;2.40;;;28.00;64.10;;;;;;5061469;28;20462;-73
2021/06/16 11:54:20;;;;;;;4.00;2.07;;;28.30;64.70;;;;;;5067077;28;20449;-73
2021/06/16 11:56:49;;;;;;;5.70;2.20;;;28.50;63.40;;;;;;5063984;28;20437;-73
2021/06/16 11:59:17;;;;;;;7.90;2.93;;;28.40;63.20;;;;;;5064659;28;20452;-75
2021/06/16 12:01:45;;;;;;;6.43;3.00;;;28.30;64.00;;;;;;5065559;28;20485;-72
2021/06/16 12:04:14;;;;;;;4.40;2.90;;;28.20;64.70;;;;;;5053153;28;20450;-73
2021/06/16 12:06:42;;;;;;;5.30;2.73;;;28.10;65.10;;;;;;5064001;28;20453;-73
2021/06/16 12:09:10;;;;;;;4.27;2.57;;;28.20;65.60;;;;;;5068825;28;20452;-70
2021/06/16 12:11:37;;;;;;;6.20;3.60;;;28.10;66.20;;;;;;5060057;28;20518;-71
2021/06/16 12:14:08;;;;;;;4.20;3.50;;;28.00;66.60;;;;;;5069753;28;20456;-71
2021/06/16 12:16:40;;;;;;;4.97;3.30;;;27.80;67.50;;;;;;5067426;28;20515;-73
2021/06/16 12:19:18;;;;;;;5.13;3.47;;;27.70;68.60;;;;;;5066016;28;20433;-76
2021/06/16 12:21:57;;;;;;;5.63;3.57;;;27.90;68.50;;;;;;5065581;28;20579;-73
2021/06/16 12:24:27;;;;;;;6.97;3.67;;;28.00;69.60;;;;;;5070197;28;20485;-73
2021/06/16 12:27:13;;;;;;;5.00;3.30;;;28.00;69.90;;;;;;5064547;28;20445;-72
2021/06/16 12:29:46;;;;;;;5.70;3.47;;;27.90;70.00;;;;;;5062718;28;20449;-72
2021/06/16 12:32:16;;;;;;;3.57;3.13;;;28.10;70.10;;;;;;5066196;28;20469;-71
2021/06/16 12:34:58;;;;;;;3.73;2.90;;;28.30;70.60;;;;;;5063993;28;20488;-74
2021/06/16 12:37:25;;;;;;;5.40;3.40;;;28.40;70.20;;;;;;5069041;28;20939;-71
2021/06/16 12:40:01;;;;;;;3.40;2.87;;;28.50;70.40;;;;;;5062924;28;20446;-74
2021/06/16 12:42:39;;;;;;;3.80;3.30;;;28.50;70.30;;;;;;5070701;28;20971;-73
2021/06/16 12:45:26;;;;;;;3.97;3.50;;;28.40;71.20;;;;;;5072390;28;20448;-74
2021/06/16 12:47:54;;;;;;;5.13;3.97;;;28.20;71.60;;;;;;5064729;28;20472;-72
2021/06/16 12:50:34;;;;;;;7.10;4.23;;;28.20;71.90;;;;;;5068592;28;20800;-74
2021/06/16 12:53:13;;;;;;;10.33;4.47;;;28.20;72.80;;;;;;5065719;28;20819;-74
2021/06/16 12:55:47;;;;;;;5.33;4.30;;;28.20;73.40;;;;;;5060113;28;20451;-71
2021/06/16 12:58:15;;;;;;;5.97;3.70;;;28.30;72.80;;;;;;5066389;28;21305;-76
2021/06/16 13:00:43;;;;;;;5.83;3.83;;;28.30;72.80;;;;;;5064114;28;20810;-76